Etusivu
METAR-TAF:

METAR-TAF

Lentoasemat :

Mo i Rana, Norja

Leveyspiiri: 66-22N, Pituuspiiri: 014-18E, korkeus merenpinnasta: 7 m

Tämänhetkinen sää

Tämä raportti tehtiin 19 tuntia ja 3 minuuttia sitten, kello 14.50 UTC
Tuuli 6 kn idästä, vaihdellen koillisen ja etelän/kaakon välillä
Lämpötila 2°C
Kosteus 69%
Ilmanpaine 1016 hPa
Näkyvyys 10 km tai enemmän
Muutamia pilviä 6000 ft:n korkeudessa
Hajonneita pilviä 9000 ft:n korkeudessa

METAR: ENRA 161450Z 08006KT 050V150 9999 FEW060 BKN090 02/M03 Q1016

Aika: 10:53 (09:53 UTC)

Sääennuste

Tämä raportti tehtiin 22 tuntia ja 53 minuuttia sitten, kello 11.00 UTC
Ennuste voimassa 16. päivästä klo 12 UTC - 16. päivään klo 16 UTC
Tuuli 5 kn idästä
Näkyvyys 10 km tai enemmän
Hajanaisia pilviä 4000 ft:n korkeudessa

TAF: ENRA 161100Z 1612/1616 10005KT 9999 SCT040

Säähavainnot ja -ennusteet yli 4000 lentoasemalta (METAR- ja TAF-raportit).

Käytössä olevat sääasemat on merkitty karttaan keltaisilla ja punaisilla pisteillä.

Aseta hiiri pisteen päälle nähdäksesi sääaseman nimen.

Klikkaa sitten nähdäksesi säähavainnot ja -ennusteet.

Kartan vaihtaminen: klikkaa mustalla rastilla varustettuja vihreitä pisteitä, niin voit zoomata sisään; viivalla varustettua vihreää pistettä, niin voit zoomata ulos tai vihreitä nuolia, niin pääset viereisille kartoille.


METAR-TAF: